Time;durP1;ratioP1;P1;durP2;ratioP2;P2;SDS_P1;SDS_P2;PMS_P1;PMS_P2;Temp;Humidity;BMP_temperature;BMP_pressure;BME280_temperature;BME280_humidity;BME280_pressure;Samples;Min_cycle;Max_cycle;Signal;HPM_P1;HPM_P2
2022/02/05 00:01:45;;;;;;;;;15.00;9.00;;;;;6.02;63.07;101477.63;4956116;28;45885;-60
2022/02/05 00:04:13;;;;;;;;;11.00;8.75;;;;;5.99;62.99;101482.13;4958517;28;45247;-61
2022/02/05 00:06:42;;;;;;;;;11.50;8.50;;;;;5.96;63.18;101477.09;4958015;28;45493;-60
2022/02/05 00:09:29;;;;;;;;;9.00;8.00;;;;;5.92;62.98;101479.84;4958295;28;46186;-61
2022/02/05 00:12:19;;;;;;;;;10.00;9.00;;;;;5.88;63.18;101478.34;4940953;28;45411;-61
2022/02/05 00:15:00;;;;;;;;;7.00;5.50;;;;;5.86;63.44;101481.94;4940253;28;45342;-61
2022/02/05 00:41:48;;;;;;;;;5.50;5.50;;;;;5.75;63.65;101483.38;4938701;28;46070;-60
2022/02/05 00:44:14;;;;;;;;;6.00;4.50;;;;;5.75;63.39;101485.97;4938654;28;45380;-60
2022/02/05 00:46:41;;;;;;;;;13.50;7.00;;;;;5.76;63.72;101489.41;4938659;28;45240;-60
2022/02/05 00:49:06;;;;;;;;;10.25;7.00;;;;;5.75;63.92;101492.94;4938615;28;45233;-60
2022/02/05 00:51:41;;;;;;;;;8.25;7.75;;;;;5.76;63.50;101489.41;4938458;28;45919;-60
2022/02/05 00:54:14;;;;;;;;;7.50;6.00;;;;;5.73;63.59;101489.56;4938403;28;45762;-61
2022/02/05 00:59:07;;;;;;;;;12.50;8.00;;;;;5.63;63.68;101486.63;4938473;28;45406;-60
2022/02/05 01:01:32;;;;;;;;;11.50;9.00;;;;;5.61;63.73;101496.28;4937466;28;68654;-61
2022/02/05 01:03:58;;;;;;;;;13.75;10.25;;;;;5.58;64.08;101506.88;4937242;28;73114;-61
2022/02/05 01:06:24;;;;;;;;;11.25;9.00;;;;;5.55;64.14;101507.03;4938253;28;45348;-61
2022/02/05 01:08:50;;;;;;;;;15.75;11.25;;;;;5.55;63.94;101512.25;4920234;28;68024;-60
2022/02/05 01:11:15;;;;;;;;;15.25;12.50;;;;;5.52;63.98;101507.19;4938072;28;46994;-60
2022/02/05 01:13:40;;;;;;;;;7.50;7.50;;;;;5.50;63.97;101509.88;4920829;28;45459;-61
2022/02/05 01:16:24;;;;;;;;;8.00;6.00;;;;;5.47;63.93;101516.06;4938356;28;45440;-60
2022/02/05 01:18:49;;;;;;;;;8.25;4.00;;;;;5.43;64.20;101522.38;4938142;28;45426;-61
2022/02/05 01:26:26;;;;;;;;;7.00;3.25;;;;;5.32;64.31;101522.06;4937845;28;45536;-61
2022/02/05 01:28:57;;;;;;;;;9.25;5.25;;;;;5.27;64.47;101537.13;4937953;28;45325;-60
2022/02/05 01:31:27;;;;;;;;;11.25;7.00;;;;;5.24;64.38;101539.88;4937849;28;46492;-60
2022/02/05 01:53:06;;;;;;;;;14.50;12.00;;;;;5.01;65.11;101557.47;4937628;28;45244;-60
2022/02/05 01:58:23;;;;;;;;;11.75;10.00;;;;;4.98;65.31;101571.50;4937777;28;45245;-60
2022/02/05 02:14:25;;;;;;;;;7.75;6.50;;;;;4.97;65.57;101572.41;4937417;28;45368;-60
2022/02/05 02:21:57;;;;;;;;;6.25;4.00;;;;;4.91;65.50;101583.13;4937405;28;45387;-60
2022/02/05 02:32:09;;;;;;;;;6.50;3.00;;;;;4.89;65.79;101583.19;4937216;28;45237;-60
2022/02/05 02:34:40;;;;;;;;;2.75;2.50;;;;;4.87;65.59;101579.81;4936975;28;45819;-61
2022/02/05 02:37:16;;;;;;;;;10.00;4.75;;;;;4.84;65.44;101579.94;4937484;28;45264;-60
2022/02/05 02:42:20;;;;;;;;;16.00;7.00;;;;;4.78;65.66;101590.66;4940346;28;45491;-61
2022/02/05 02:44:46;;;;;;;;;7.25;7.25;;;;;4.76;65.50;101587.31;4939925;28;46345;-60
2022/02/05 02:47:12;;;;;;;;;7.50;7.50;;;;;4.75;65.61;101585.63;4939049;28;72698;-60
2022/02/05 02:57:32;;;;;;;;;6.00;6.00;;;;;4.70;65.32;101598.00;4940129;28;45877;-60
2022/02/05 03:00:01;;;;;;;;;6.00;4.00;;;;;4.66;65.66;101602.50;4940075;28;45370;-60
2022/02/05 03:02:27;;;;;;;;;3.00;3.00;;;;;4.63;65.76;101597.41;4940253;28;45540;-60
2022/02/05 03:04:53;;;;;;;;;7.25;4.00;;;;;4.60;65.69;101598.41;4939966;28;46242;-60
2022/02/05 03:07:23;;;;;;;;;8.25;6.50;;;;;4.56;65.59;101602.09;4922617;28;45237;-60
2022/02/05 03:09:49;;;;;;;;;15.75;12.25;;;;;4.54;65.82;101601.31;4939889;28;45296;-60
2022/02/05 03:12:14;;;;;;;;;28.00;26.75;;;;;4.53;65.26;101614.38;4939786;28;45407;-61
2022/02/05 03:14:40;;;;;;;;;31.75;26.25;;;;;4.48;65.33;101612.00;4939509;28;45422;-60
2022/02/05 03:17:16;;;;;;;;;30.50;26.25;;;;;4.47;65.54;101606.88;4939631;28;45589;-60
2022/02/05 03:19:46;;;;;;;;;27.25;21.00;;;;;4.44;65.43;101619.09;4939898;28;45367;-60
2022/02/05 03:22:12;;;;;;;;;18.75;16.00;;;;;4.42;65.56;101613.13;4939933;28;45459;-59
2022/02/05 03:24:37;;;;;;;;;24.25;20.00;;;;;4.40;65.38;101612.34;4939440;28;45853;-60
2022/02/05 03:27:03;;;;;;;;;36.00;29.75;;;;;4.36;65.48;101621.22;4938929;28;55801;-61
2022/02/05 03:29:29;;;;;;;;;29.00;26.75;;;;;4.31;65.23;101613.59;4939267;28;45372;-60
2022/02/05 03:31:54;;;;;;;;;29.25;24.00;;;;;4.26;65.36;101619.91;4937668;28;58166;-60
2022/02/05 03:34:19;;;;;;;;;13.50;11.75;;;;;4.24;65.62;101624.34;4939221;28;49084;-60
2022/02/05 03:36:45;;;;;;;;;59.25;43.75;;;;;4.24;65.52;101619.16;4939402;28;45419;-60
2022/02/05 03:39:10;;;;;;;;;32.00;24.50;;;;;4.23;65.72;101626.13;4938538;28;67967;-60
2022/02/05 03:41:36;;;;;;;;;18.00;12.50;;;;;4.22;65.75;101632.22;4939239;28;45661;-60
2022/02/05 03:44:01;;;;;;;;;17.25;11.00;;;;;4.23;65.39;101633.06;4939120;28;46137;-61
2022/02/05 03:46:26;;;;;;;;;13.25;8.00;;;;;4.20;65.52;101628.00;4938915;28;45320;-60
2022/02/05 03:48:52;;;;;;;;;25.50;20.00;;;;;4.16;65.39;101625.53;4937877;28;45318;-61
2022/02/05 03:51:17;;;;;;;;;25.75;18.50;;;;;4.11;65.84;101622.28;4939126;28;45248;-60
2022/02/05 03:53:43;;;;;;;;;17.00;13.50;;;;;4.10;65.45;101628.41;4939117;28;45368;-60
2022/02/05 03:56:08;;;;;;;;;20.00;18.75;;;;;4.06;65.34;101634.63;4938415;28;59968;-60
2022/02/05 03:58:34;;;;;;;;;32.00;25.75;;;;;4.00;65.49;101640.97;4939128;28;45246;-60
2022/02/05 04:00:59;;;;;;;;;29.75;23.00;;;;;3.97;65.47;101651.50;4939041;28;45356;-61
2022/02/05 04:03:24;;;;;;;;;27.25;23.00;;;;;3.91;65.35;101651.75;4938032;28;66475;-60
2022/02/05 04:05:50;;;;;;;;;29.75;26.50;;;;;3.88;65.38;101664.06;4938015;28;62838;-60
2022/02/05 04:08:16;;;;;;;;;61.25;44.25;;;;;3.84;65.69;101660.72;4938995;28;45398;-60
2022/02/05 04:10:53;;;;;;;;;47.75;39.00;;;;;3.80;65.94;101659.16;4938903;28;45318;-60
2022/02/05 04:18:33;;;;;;;;;25.75;18.25;;;;;3.75;66.05;101648.97;4938984;28;45293;-61
2022/02/05 04:20:59;;;;;;;;;36.75;25.00;;;;;3.72;66.06;101647.31;4937864;28;70404;-60
2022/02/05 04:23:24;;;;;;;;;27.50;24.75;;;;;3.70;66.15;101653.50;4937837;28;70444;-60
2022/02/05 04:25:49;;;;;;;;;33.25;27.00;;;;;3.69;66.38;101660.47;4938658;28;45842;-60
2022/02/05 04:28:15;;;;;;;;;34.00;27.25;;;;;3.67;66.85;101651.03;4920431;28;67586;-60
2022/02/05 04:30:40;;;;;;;;;31.00;26.25;;;;;3.66;66.46;101655.41;4937416;28;68541;-60
2022/02/05 04:33:05;;;;;;;;;51.75;41.75;;;;;3.64;66.37;101656.34;4937983;28;57812;-60
2022/02/05 04:35:31;;;;;;;;;29.25;26.00;;;;;3.63;66.34;101657.25;4937334;28;72226;-60
2022/02/05 04:37:59;;;;;;;;;43.25;34.50;;;;;3.62;66.49;101658.16;4938567;28;45643;-60
2022/02/05 04:43:07;;;;;;;;;33.50;28.75;;;;;3.63;66.32;101658.13;4938203;28;45391;-60
2022/02/05 04:46:06;;;;;;;;;32.50;28.25;;;;;3.63;66.45;101655.53;4937294;28;45368;-60
2022/02/05 04:54:59;;;;;;;;;26.50;21.50;;;;;3.55;66.03;101654.97;4878707;29;45599;-60
2022/02/05 05:00:14;;;;;;;;;23.75;18.50;;;;;3.45;65.90;101661.47;4930626;28;45246;-60
2022/02/05 05:03:00;;;;;;;;;23.25;23.00;;;;;3.44;66.02;101670.16;4936918;28;45582;-59
2022/02/05 05:06:03;;;;;;;;;29.00;24.50;;;;;3.38;65.58;101664.31;4937923;28;45590;-60
2022/02/05 05:21:21;;;;;;;;;23.00;21.00;;;;;3.15;66.11;101662.63;4938198;28;45315;-60
2022/02/05 05:23:46;;;;;;;;;30.25;21.25;;;;;3.13;66.77;101666.19;4937277;28;60988;-60
2022/02/05 05:26:12;;;;;;;;;28.00;21.00;;;;;3.11;66.26;101669.69;4936669;28;72624;-60
2022/02/05 05:28:37;;;;;;;;;23.75;18.25;;;;;3.10;66.63;101670.59;4936693;28;73245;-59
2022/02/05 05:31:02;;;;;;;;;24.00;20.25;;;;;3.06;66.59;101679.41;4936978;28;65710;-59
2022/02/05 05:33:28;;;;;;;;;27.00;17.75;;;;;3.06;66.66;101675.94;4937965;28;45682;-61
2022/02/05 05:35:53;;;;;;;;;22.75;19.50;;;;;3.06;66.56;101676.81;4937055;28;63098;-60
2022/02/05 05:38:19;;;;;;;;;18.00;15.25;;;;;3.05;66.41;101675.13;4937793;28;45348;-60
2022/02/05 05:40:44;;;;;;;;;23.50;17.25;;;;;3.04;66.66;101672.56;4936872;28;65014;-60
2022/02/05 05:43:36;;;;;;;;;26.00;19.75;;;;;3.02;66.32;101667.44;4937760;28;45541;-60
2022/02/05 05:46:32;;;;;;;;;28.75;19.50;;;;;2.95;66.53;101676.38;4936340;28;47407;-60
2022/02/05 05:49:10;;;;;;;;;29.25;18.75;;;;;2.90;66.79;101673.09;4937471;28;45382;-59
2022/02/05 05:51:35;;;;;;;;;26.50;23.75;;;;;2.87;66.96;101673.22;4936419;28;45244;-60
2022/02/05 05:54:01;;;;;;;;;27.50;23.50;;;;;2.89;66.88;101682.66;4936695;28;69439;-60
2022/02/05 05:56:26;;;;;;;;;23.50;20.00;;;;;2.88;66.51;101685.28;4937221;28;45372;-60
2022/02/05 05:58:51;;;;;;;;;24.75;21.50;;;;;2.89;66.70;101681.78;4919392;28;70538;-61
2022/02/05 06:01:17;;;;;;;;;30.25;24.75;;;;;2.88;66.69;101685.28;4937551;28;45954;-59
2022/02/05 06:03:42;;;;;;;;;21.25;19.00;;;;;2.86;66.26;101679.31;4919305;28;69489;-60
2022/02/05 06:06:07;;;;;;;;;21.50;17.50;;;;;2.85;66.45;101680.22;4936372;28;74952;-60
2022/02/05 06:08:33;;;;;;;;;26.50;20.00;;;;;2.83;66.54;101682.88;4936320;28;69023;-60
2022/02/05 06:10:58;;;;;;;;;25.50;21.25;;;;;2.81;66.30;101687.28;4936661;28;67269;-61
2022/02/05 06:13:24;;;;;;;;;25.75;20.75;;;;;2.79;66.60;101694.28;4940727;28;45275;-60
2022/02/05 06:15:51;;;;;;;;;23.75;20.00;;;;;2.75;66.58;101690.94;4940545;28;45344;-59
2022/02/05 06:18:17;;;;;;;;;26.00;18.00;;;;;2.73;66.37;101694.50;4940583;28;45742;-60
2022/02/05 06:20:42;;;;;;;;;26.25;22.00;;;;;2.72;66.56;101698.84;4940668;28;45225;-60
2022/02/05 06:23:08;;;;;;;;;25.00;20.25;;;;;2.71;66.58;101694.53;4939874;28;64574;-60
2022/02/05 06:25:35;;;;;;;;;25.00;16.50;;;;;2.71;66.61;101698.91;4939493;28;71772;-60
2022/02/05 06:28:00;;;;;;;;;24.75;20.00;;;;;2.66;66.55;101704.25;4940292;28;45771;-61
2022/02/05 06:30:26;;;;;;;;;18.75;16.00;;;;;2.63;66.99;101710.41;4939315;28;69364;-60
2022/02/05 06:32:51;;;;;;;;;29.75;20.75;;;;;2.61;67.16;101714.81;4939644;28;63874;-60
2022/02/05 06:35:16;;;;;;;;;23.00;18.00;;;;;2.60;66.92;101713.09;4939298;28;73974;-60
2022/02/05 06:37:42;;;;;;;;;27.00;22.00;;;;;2.60;67.00;101714.88;4939433;28;68727;-60
2022/02/05 06:40:08;;;;;;;;;34.00;24.75;;;;;2.58;66.87;101714.91;4940209;28;45829;-59
2022/02/05 06:42:34;;;;;;;;;32.75;26.25;;;;;2.56;66.80;101715.88;4940324;28;45424;-60
2022/02/05 06:44:59;;;;;;;;;28.50;25.75;;;;;2.57;66.60;101722.75;4940022;28;45709;-60
2022/02/05 06:47:24;;;;;;;;;22.00;20.00;;;;;2.56;66.68;101721.06;4939127;28;69633;-60
2022/02/05 06:49:50;;;;;;;;;20.50;16.75;;;;;2.55;66.88;101725.41;4939203;28;45359;-60
2022/02/05 06:52:15;;;;;;;;;26.25;24.50;;;;;2.56;67.17;101728.84;4939086;28;69427;-60
2022/02/05 06:54:40;;;;;;;;;30.75;22.50;;;;;2.54;66.97;101734.09;4939325;28;64119;-60
2022/02/05 06:57:06;;;;;;;;;28.75;24.50;;;;;2.53;67.03;101737.56;4938922;28;72397;-60
2022/02/05 06:59:31;;;;;;;;;37.00;31.25;;;;;2.54;66.89;101734.09;4939945;28;45172;-60
2022/02/05 07:01:57;;;;;;;;;29.50;28.25;;;;;2.54;67.05;101739.28;4939213;28;63675;-60
2022/02/05 07:04:25;;;;;;;;;32.25;28.75;;;;;2.51;67.26;101739.38;4939009;28;65114;-60
2022/02/05 07:06:53;;;;;;;;;29.00;24.00;;;;;2.50;67.42;101746.31;4938561;28;45709;-61
2022/02/05 07:09:20;;;;;;;;;30.25;26.75;;;;;2.52;67.18;101749.72;4940031;28;45339;-60
2022/02/05 07:11:46;;;;;;;;;32.25;28.00;;;;;2.54;67.01;101751.41;4939933;28;45455;-60
2022/02/05 07:14:13;;;;;;;;;39.25;30.00;;;;;2.55;67.04;101755.69;4939718;28;45989;-61
2022/02/05 07:16:47;;;;;;;;;34.50;28.50;;;;;2.56;66.93;101765.19;4939781;28;45527;-60
2022/02/05 07:19:22;;;;;;;;;36.00;30.00;;;;;2.51;66.76;101776.56;4939629;28;45176;-59
2022/02/05 07:21:52;;;;;;;;;30.50;28.50;;;;;2.49;67.12;101775.78;4939383;28;45402;-60
2022/02/05 07:29:35;;;;;;;;;23.50;20.25;;;;;2.42;67.48;101776.00;4939421;28;45497;-60
2022/02/05 07:32:00;;;;;;;;;19.75;17.75;;;;;2.38;67.38;101775.28;4939602;28;45208;-60
2022/02/05 07:34:26;;;;;;;;;25.50;20.00;;;;;2.41;67.62;101785.56;4938472;28;71644;-60
2022/02/05 07:36:53;;;;;;;;;22.25;21.00;;;;;2.42;67.50;101778.59;4939380;28;45359;-60
2022/02/05 07:39:18;;;;;;;;;26.00;23.00;;;;;2.42;67.53;101786.38;4939474;28;45369;-60
2022/02/05 07:41:44;;;;;;;;;28.50;20.50;;;;;2.42;67.54;101787.25;4939342;28;45376;-61
2022/02/05 07:44:15;;;;;;;;;30.00;20.25;;;;;2.40;67.92;101781.25;4937658;28;46276;-61
2022/02/05 07:46:43;;;;;;;;;25.00;21.75;;;;;2.41;67.76;101788.16;4937645;28;45279;-60
2022/02/05 07:49:10;;;;;;;;;27.50;23.25;;;;;2.42;67.67;101788.97;4939083;28;45272;-60
2022/02/05 07:51:36;;;;;;;;;41.00;32.25;;;;;2.42;67.79;101784.66;4939181;28;45316;-60
2022/02/05 07:54:01;;;;;;;;;22.75;20.00;;;;;2.44;67.69;101779.41;4938407;28;61779;-60
2022/02/05 07:56:27;;;;;;;;;25.50;19.25;;;;;2.46;67.81;101785.38;4945890;28;69657;-60
2022/02/05 07:58:53;;;;;;;;;43.50;37.00;;;;;2.47;67.78;101790.53;4947874;28;45360;-59
2022/02/05 08:01:18;;;;;;;;;37.75;30.75;;;;;2.48;68.03;101787.03;4946989;28;55883;-61
2022/02/05 08:03:43;;;;;;;;;28.25;22.25;;;;;2.50;68.12;101784.38;4942765;28;69427;-60
2022/02/05 08:06:15;;;;;;;;;33.00;29.00;;;;;2.53;67.68;101784.28;4938141;28;62938;-61
2022/02/05 08:08:41;;;;;;;;;35.50;30.00;;;;;2.57;67.62;101785.03;4921336;28;45350;-60
2022/02/05 08:11:10;;;;;;;;;29.50;24.50;;;;;2.59;67.79;101784.06;4938776;28;45247;-61
2022/02/05 08:13:35;;;;;;;;;32.25;29.25;;;;;2.62;67.86;101778.78;4938582;28;47140;-61
2022/02/05 08:17:06;;;;;;;;;26.00;19.00;;;;;2.66;67.91;101774.31;4938666;28;45576;-60
2022/02/05 08:18:56;;;;;;;;;30.25;26.50;;;;;2.66;68.20;101782.09;4925985;28;45297;-60
2022/02/05 08:21:21;;;;;;;;;29.25;24.25;;;;;2.69;68.09;101779.41;4921315;28;45605;-61
2022/02/05 08:23:46;;;;;;;;;31.00;26.00;;;;;2.73;68.35;101774.97;4938433;28;46876;-61
2022/02/05 08:26:12;;;;;;;;;41.25;34.50;;;;;2.75;68.45;101779.19;4937403;28;71818;-60
2022/02/05 08:28:37;;;;;;;;;49.50;37.50;;;;;2.78;68.81;101768.69;4938423;28;45258;-59
2022/02/05 08:31:03;;;;;;;;;44.25;35.50;;;;;2.82;69.15;101775.47;4938516;28;45372;-60
2022/02/05 08:33:29;;;;;;;;;69.25;53.00;;;;;2.88;68.81;101768.38;4938034;28;45314;-60
2022/02/05 08:35:54;;;;;;;;;64.50;48.25;;;;;2.94;68.98;101770.75;4937706;28;45438;-61
2022/02/05 08:38:20;;;;;;;;;68.50;51.75;;;;;2.99;69.04;101781.81;4937314;28;63258;-59
2022/02/05 08:40:45;;;;;;;;;66.00;51.00;;;;;3.04;68.96;101779.91;4937440;28;45388;-60
2022/02/05 08:43:11;;;;;;;;;70.00;53.50;;;;;3.08;69.02;101773.69;4938016;28;45373;-59
2022/02/05 08:45:37;;;;;;;;;64.00;50.25;;;;;3.16;68.88;101782.94;4920962;28;46098;-61
2022/02/05 08:48:02;;;;;;;;;65.75;49.50;;;;;3.24;69.16;101788.69;4938278;28;45305;-60
2022/02/05 08:50:28;;;;;;;;;64.50;47.50;;;;;3.29;69.17;101784.16;4937993;28;45412;-60
2022/02/05 08:52:55;;;;;;;;;70.50;52.75;;;;;3.37;69.24;101782.13;4937991;28;47081;-61
2022/02/05 08:55:21;;;;;;;;;58.00;44.75;;;;;3.46;69.12;101778.31;4920933;28;45312;-60
2022/02/05 08:57:46;;;;;;;;;24.25;15.75;;;;;3.53;68.99;101778.94;4938286;28;45482;-60
2022/02/05 09:00:14;;;;;;;;;55.00;42.50;;;;;3.58;69.08;101784.81;4938253;28;45364;-60
2022/02/05 09:02:56;;;;;;;;;58.25;44.00;;;;;3.64;69.31;101781.97;4920644;28;45353;-60
2022/02/05 09:08:33;;;;;;;;;57.50;44.25;;;;;3.86;69.22;101784.56;4897018;29;45590;-60
2022/02/05 09:11:12;;;;;;;;;59.50;44.00;;;;;4.04;68.99;101783.88;4930842;28;45633;-60
2022/02/05 09:16:10;;;;;;;;;49.50;37.00;;;;;4.50;69.08;101783.72;4937638;28;45314;-60
2022/02/05 09:18:35;;;;;;;;;62.75;47.00;;;;;4.78;68.76;101785.94;4937913;28;45228;-61
2022/02/05 09:21:01;;;;;;;;;63.75;48.50;;;;;5.08;68.38;101787.25;4937845;28;45531;-60
2022/02/05 09:23:26;;;;;;;;;59.75;46.75;;;;;5.38;68.13;101784.16;4937630;28;46155;-61
2022/02/05 09:25:52;;;;;;;;;55.00;44.00;;;;;5.67;67.89;101785.41;4937834;28;45277;-61
2022/02/05 09:28:17;;;;;;;;;45.25;37.25;;;;;5.98;67.54;101791.72;4937753;28;45322;-60
2022/02/05 09:31:02;;;;;;;;;23.25;19.25;;;;;6.28;67.03;101793.78;4919032;28;45474;-61
2022/02/05 09:33:28;;;;;;;;;19.25;15.00;;;;;6.64;66.56;101789.34;4936157;28;47044;-61
2022/02/05 09:35:53;;;;;;;;;24.75;18.00;;;;;6.95;66.17;101793.81;4936312;28;46956;-59
2022/02/05 09:38:19;;;;;;;;;15.75;15.00;;;;;7.27;65.60;101795.63;4936311;28;45633;-60
2022/02/05 09:40:44;;;;;;;;;22.75;14.25;;;;;7.59;64.88;101787.81;4936047;28;65959;-60
2022/02/05 09:43:10;;;;;;;;;16.75;13.75;;;;;7.91;64.58;101789.53;4936515;28;55720;-60
2022/02/05 09:45:36;;;;;;;;;21.25;14.75;;;;;8.23;63.90;101790.28;4937620;28;45944;-60
2022/02/05 09:48:01;;;;;;;;;12.00;11.75;;;;;8.55;62.73;101784.94;4940963;28;45367;-61
2022/02/05 09:50:27;;;;;;;;;16.75;12.50;;;;;8.86;62.48;101784.88;4923341;28;45395;-60
2022/02/05 09:52:54;;;;;;;;;17.00;11.00;;;;;9.13;61.71;101786.72;4940562;28;45990;-61
2022/02/05 09:55:20;;;;;;;;;18.25;16.00;;;;;9.42;61.15;101786.66;4940810;28;45388;-60
2022/02/05 09:57:45;;;;;;;;;11.00;10.75;;;;;9.67;60.16;101800.81;4940265;28;45382;-61
2022/02/05 10:00:18;;;;;;;;;12.50;11.25;;;;;9.92;59.54;101790.44;4939935;28;63842;-61
2022/02/05 10:02:43;;;;;;;;;13.50;12.00;;;;;10.15;58.97;101800.34;4940851;28;45248;-61
2022/02/05 10:05:15;;;;;;;;;15.50;13.25;;;;;10.39;58.77;101806.59;4940840;28;45536;-61
2022/02/05 10:07:57;;;;;;;;;17.25;12.75;;;;;10.71;57.91;101796.66;4940747;28;45303;-60
2022/02/05 10:10:24;;;;;;;;;18.75;15.25;;;;;10.96;57.52;101798.41;4923144;28;45531;-60
2022/02/05 10:13:18;;;;;;;;;15.75;13.50;;;;;11.24;56.87;101802.56;4940249;28;45389;-61
2022/02/05 10:15:44;;;;;;;;;16.75;11.75;;;;;11.50;56.04;101804.28;4940760;28;45338;-60
2022/02/05 10:18:23;;;;;;;;;13.50;9.75;;;;;11.74;55.83;101812.19;4940769;28;45366;-60
2022/02/05 10:20:49;;;;;;;;;17.75;13.00;;;;;11.97;55.32;101807.84;4940731;28;45358;-61
2022/02/05 10:23:14;;;;;;;;;32.00;29.75;;;;;12.20;55.04;101810.56;4939150;28;75636;-60
2022/02/05 10:25:39;;;;;;;;;12.25;11.75;;;;;12.41;54.00;101799.38;4939477;28;69594;-61
2022/02/05 10:28:12;;;;;;;;;9.75;8.00;;;;;12.60;53.58;101810.19;4923164;28;45364;-60
2022/02/05 10:30:42;;;;;;;;;9.50;8.25;;;;;12.76;53.02;101814.28;4940157;28;45533;-61
2022/02/05 10:33:12;;;;;;;;;11.25;9.50;;;;;12.94;52.77;101819.09;4940253;28;46501;-61
2022/02/05 10:36:14;;;;;;;;;11.00;9.00;;;;;13.10;52.54;101814.28;4923030;28;45782;-61
2022/02/05 10:43:56;;;;;;;;;10.25;8.75;;;;;13.49;51.10;101819.19;4940181;28;45583;-61
2022/02/05 10:46:22;;;;;;;;;10.75;9.75;;;;;13.63;50.49;101823.34;4939930;28;45384;-61
2022/02/05 10:48:47;;;;;;;;;25.50;20.75;;;;;13.76;50.28;101823.19;4940024;28;45255;-61
2022/02/05 10:51:13;;;;;;;;;13.75;10.00;;;;;13.88;49.95;101830.09;4939309;28;64082;-61
2022/02/05 10:53:48;;;;;;;;;10.75;8.00;;;;;13.95;49.82;101825.16;4939823;28;47275;-61
2022/02/05 10:56:21;;;;;;;;;79.00;65.25;;;;;13.99;49.28;101820.47;4922345;28;45379;-61
2022/02/05 11:07:02;;;;;;;;;8.25;5.75;;;;;13.67;48.41;101839.78;4939446;28;45345;-59
2022/02/05 11:09:27;;;;;;;;;5.50;3.75;;;;;13.68;49.12;101841.44;4939733;28;45390;-61
2022/02/05 11:19:58;;;;;;;;;6.00;5.75;;;;;13.86;48.80;101828.53;4923337;28;45394;-60
2022/02/05 11:22:23;;;;;;;;;7.00;5.00;;;;;13.85;48.32;101833.00;4921137;28;62367;-60
2022/02/05 11:24:49;;;;;;;;;7.50;6.50;;;;;13.79;48.57;101839.59;4921668;28;45359;-58
2022/02/05 11:27:15;;;;;;;;;9.25;4.00;;;;;13.71;48.52;101826.22;4890318;28;45508;-60
2022/02/05 11:29:40;;;;;;;;;4.00;4.00;;;;;13.64;48.57;101831.13;4922120;28;45526;-61
2022/02/05 11:32:22;;;;;;;;;8.50;6.00;;;;;13.55;48.73;101817.84;4938962;28;54477;-61
2022/02/05 11:35:30;;;;;;;;;6.50;6.00;;;;;13.39;48.37;101826.94;4923020;28;47112;-60
2022/02/05 11:37:58;;;;;;;;;9.00;6.00;;;;;13.23;48.41;101821.25;4914773;28;45352;-62
2022/02/05 11:40:41;;;;;;;;;5.75;4.25;;;;;13.07;48.22;101812.72;4939026;28;45374;-61
2022/02/05 11:43:36;;;;;;;;;7.00;5.00;;;;;12.97;48.45;101817.06;4938824;28;45632;-60
2022/02/05 11:46:05;;;;;;;;;5.00;3.50;;;;;12.86;48.75;101815.25;4925693;28;45497;-61
2022/02/05 11:48:55;;;;;;;;;10.00;9.00;;;;;12.79;48.89;101821.13;4938432;28;45192;-61
2022/02/05 11:51:28;;;;;;;;;7.00;7.00;;;;;12.71;48.79;101814.63;4939265;28;45293;-60
2022/02/05 11:53:59;;;;;;;;;9.25;5.25;;;;;12.68;48.74;101821.97;4939183;28;45601;-61
2022/02/05 11:56:50;;;;;;;;;10.50;6.00;;;;;12.69;48.75;101819.19;4939099;28;46057;-61
2022/02/05 11:59:33;;;;;;;;;5.50;5.00;;;;;12.74;48.53;101817.03;4938643;28;45909;-61
2022/02/05 12:02:10;;;;;;;;;3.75;1.25;;;;;12.81;48.26;101812.13;4922741;28;45284;-61
2022/02/05 12:04:35;;;;;;;;;3.50;3.00;;;;;12.89;48.05;101804.44;4922200;28;45343;-61
2022/02/05 12:07:06;;;;;;;;;6.00;4.00;;;;;13.01;47.89;101800.00;4938487;28;45991;-61
2022/02/05 12:09:35;;;;;;;;;0.50;0.50;;;;;13.10;47.98;101790.53;4936775;28;45824;-61
2022/02/05 12:12:22;;;;;;;;;4.50;3.00;;;;;13.17;47.66;101775.91;4938878;28;45434;-61
2022/02/05 12:15:15;;;;;;;;;7.50;5.00;;;;;13.24;47.82;101778.06;4938448;28;45508;-61
2022/02/05 12:18:04;;;;;;;;;7.50;4.25;;;;;13.28;47.26;101782.09;4938646;28;46017;-60
2022/02/05 12:20:32;;;;;;;;;4.00;3.25;;;;;13.30;46.86;101782.81;4938180;28;45187;-60
2022/02/05 12:23:27;;;;;;;;;8.00;4.00;;;;;13.28;46.75;101777.66;4938872;28;46098;-60
2022/02/05 12:25:58;;;;;;;;;9.50;7.50;;;;;13.29;46.97;101784.63;4921368;28;45277;-60
2022/02/05 12:28:40;;;;;;;;;5.00;5.00;;;;;13.29;46.65;101773.22;4938534;28;46240;-60
2022/02/05 12:31:17;;;;;;;;;5.00;2.50;;;;;13.29;46.36;101765.28;5155812;27;45241;-60
2022/02/05 12:33:46;;;;;;;;;6.75;5.50;;;;;13.31;45.78;101768.66;5134879;27;45298;-60
2022/02/05 12:36:28;;;;;;;;;5.50;4.25;;;;;13.28;46.37;101761.84;5134959;27;45319;-59
2022/02/05 12:38:54;;;;;;;;;6.75;3.00;;;;;13.29;46.03;101767.94;5134962;27;45347;-60
2022/02/05 12:41:22;;;;;;;;;6.00;4.50;;;;;13.27;45.81;101757.50;5134605;27;46120;-59
2022/02/05 12:43:54;;;;;;;;;3.00;2.50;;;;;13.27;45.16;101767.22;5130736;27;46454;-59
2022/02/05 12:46:22;;;;;;;;;2.75;2.00;;;;;13.23;45.21;101766.63;5132869;27;45552;-60
2022/02/05 12:48:51;;;;;;;;;4.50;2.50;;;;;13.23;45.31;101765.81;5098575;27;45298;-59
2022/02/05 12:51:17;;;;;;;;;2.75;1.00;;;;;13.24;44.99;101762.22;5134553;27;46124;-59
2022/02/05 12:53:43;;;;;;;;;6.00;3.50;;;;;13.24;44.86;101757.75;5115167;27;70188;-60
2022/02/05 12:56:13;;;;;;;;;4.00;3.00;;;;;13.23;44.75;101758.72;5134680;27;45351;-60
2022/02/05 12:58:55;;;;;;;;;2.75;2.00;;;;;13.22;44.85;101762.31;5133407;27;45415;-60
2022/02/05 13:01:20;;;;;;;;;7.00;7.00;;;;;13.26;44.81;101763.75;5133610;27;46247;-61
2022/02/05 13:03:46;;;;;;;;;5.00;2.00;;;;;13.29;44.37;101766.16;5134049;27;49901;-61
2022/02/05 13:06:18;;;;;;;;;2.00;2.00;;;;;13.34;43.92;101760.47;5132923;27;45440;-60
2022/02/05 13:08:48;;;;;;;;;3.25;3.00;;;;;13.42;43.99;101763.38;5134422;27;45559;-60
2022/02/05 13:11:20;;;;;;;;;5.75;4.00;;;;;13.58;44.01;101764.78;5134192;27;45471;-59
2022/02/05 13:13:53;;;;;;;;;4.00;3.00;;;;;13.77;43.51;101761.47;5134187;27;45391;-59
2022/02/05 13:16:20;;;;;;;;;4.00;2.00;;;;;13.98;43.09;101750.91;5133796;27;45328;-60
2022/02/05 13:19:07;;;;;;;;;3.00;3.00;;;;;14.13;43.27;101756.69;5134164;27;45368;-60
2022/02/05 13:24:58;;;;;;;;;1.50;1.50;;;;;14.26;41.31;101745.94;5134070;27;45474;-60
2022/02/05 13:27:31;;;;;;;;;2.00;2.00;;;;;14.18;41.03;101743.09;5102354;27;45342;-60
2022/02/05 13:33:40;;;;;;;;;9.00;5.75;;;;;14.15;40.87;101748.66;5133614;27;45461;-60
2022/02/05 13:35:26;;;;;;;;;21.25;17.25;;;;;14.20;40.46;101733.25;5118066;27;45544;-61
2022/02/05 13:37:56;;;;;;;;;17.00;15.00;;;;;14.22;39.68;101734.78;5133581;27;45568;-61
2022/02/05 13:40:29;;;;;;;;;10.75;9.00;;;;;14.23;39.50;101731.16;5132985;27;45218;-61
2022/02/05 13:43:04;;;;;;;;;6.25;5.50;;;;;14.21;39.24;101737.56;5100833;27;46206;-60
2022/02/05 13:45:37;;;;;;;;;2.25;2.25;;;;;14.15;39.09;101730.16;5119631;27;45220;-60
2022/02/05 13:48:04;;;;;;;;;2.25;1.50;;;;;14.06;39.27;101729.97;5119763;27;45345;-61
2022/02/05 13:50:37;;;;;;;;;4.00;2.00;;;;;13.95;39.53;101724.72;5119870;27;45517;-61
2022/02/05 13:53:03;;;;;;;;;3.25;1.00;;;;;13.86;39.73;101720.22;5118956;27;46254;-61
2022/02/05 13:55:30;;;;;;;;;4.75;3.00;;;;;13.71;39.70;101723.19;5101348;27;45846;-60
2022/02/05 13:57:59;;;;;;;;;2.00;2.00;;;;;13.57;39.30;101718.22;5119652;27;45223;-61
2022/02/05 14:00:41;;;;;;;;;1.75;1.75;;;;;13.39;39.57;101713.44;5119818;27;45177;-61
2022/02/05 14:03:08;;;;;;;;;1.00;1.00;;;;;13.27;39.83;101725.00;5101915;27;45287;-61
2022/02/05 14:05:54;;;;;;;;;3.75;1.50;;;;;13.14;39.57;101717.22;5119246;27;45757;-60
2022/02/05 14:08:33;;;;;;;;;3.75;1.25;;;;;12.98;39.62;101715.81;5107870;27;45220;-60
2022/02/05 14:11:00;;;;;;;;;3.75;3.00;;;;;12.89;40.31;101717.41;5119190;27;45335;-60